createdAt,value
2017-06-03T00:00:22.604Z,18.80
2017-06-03T00:02:50.493Z,18.80
2017-06-03T00:05:18.012Z,18.80
2017-06-03T00:07:45.910Z,18.50
2017-06-03T00:10:13.493Z,18.50
2017-06-03T00:12:41.041Z,18.50
2017-06-03T00:15:09.051Z,18.50
2017-06-03T00:17:36.546Z,18.50
2017-06-03T00:20:04.074Z,18.60
2017-06-03T00:22:31.607Z,18.60
2017-06-03T00:24:59.093Z,18.40
2017-06-03T00:27:26.708Z,18.40
2017-06-03T00:29:54.195Z,18.50
2017-06-03T00:32:21.692Z,18.50
2017-06-03T00:34:50.209Z,18.40
2017-06-03T00:37:17.698Z,18.40
2017-06-03T00:39:45.192Z,18.40
2017-06-03T00:42:12.712Z,18.50
2017-06-03T00:44:40.215Z,18.40
2017-06-03T00:47:07.716Z,18.40
2017-06-03T00:49:35.258Z,18.20
2017-06-03T00:52:02.751Z,18.20
2017-06-03T00:54:30.243Z,18.10
2017-06-03T00:56:57.760Z,18.20
2017-06-03T00:59:25.257Z,18.10
2017-06-03T01:01:52.745Z,18.00
2017-06-03T01:04:20.287Z,18.00
2017-06-03T01:06:47.791Z,18.00
2017-06-03T01:09:15.281Z,18.00
2017-06-03T01:11:43.223Z,17.80
2017-06-03T01:14:10.724Z,17.80
2017-06-03T01:16:38.214Z,17.80
2017-06-03T01:19:05.741Z,17.80
2017-06-03T01:21:33.217Z,17.80
2017-06-03T01:24:00.709Z,17.80
2017-06-03T01:26:28.323Z,17.70
2017-06-03T01:28:55.828Z,17.70
2017-06-03T01:31:23.316Z,17.70
2017-06-03T01:33:51.323Z,17.50
2017-06-03T01:36:18.808Z,17.50
2017-06-03T01:38:46.300Z,17.40
2017-06-03T01:41:13.836Z,17.40
2017-06-03T01:43:41.327Z,17.50
2017-06-03T01:46:08.818Z,17.60
2017-06-03T01:48:36.348Z,17.50
2017-06-03T01:51:03.845Z,17.40
2017-06-03T01:53:31.875Z,17.50
2017-06-03T01:55:59.409Z,17.50
2017-06-03T01:58:26.899Z,17.60
2017-06-03T02:00:54.399Z,17.50
2017-06-03T02:03:21.924Z,17.50
2017-06-03T02:05:49.414Z,17.40
2017-06-03T02:08:16.945Z,17.40
2017-06-03T02:10:44.508Z,17.20
2017-06-03T02:13:11.992Z,17.20
2017-06-03T02:15:39.480Z,17.30
2017-06-03T02:18:07.008Z,17.30
2017-06-03T02:20:34.564Z,17.30
2017-06-03T02:23:02.061Z,17.30
2017-06-03T02:25:30.373Z,17.30
2017-06-03T02:27:58.250Z,17.20
2017-06-03T02:30:25.763Z,17.30
2017-06-03T02:32:53.332Z,17.30
2017-06-03T02:35:20.825Z,17.30
2017-06-03T02:37:48.356Z,17.40
2017-06-03T02:40:15.920Z,17.20
2017-06-03T02:42:43.420Z,17.20
2017-06-03T02:45:10.921Z,17.20
2017-06-03T02:47:38.467Z,17.10
2017-06-03T02:50:06.367Z,17.20
2017-06-03T02:52:33.868Z,17.20
2017-06-03T02:55:01.396Z,17.00
2017-06-03T02:57:28.916Z,17.20
2017-06-03T02:59:56.411Z,17.10
2017-06-03T03:02:23.988Z,17.20
2017-06-03T03:04:51.486Z,17.20
2017-06-03T03:07:19.371Z,17.00
2017-06-03T03:09:46.930Z,17.00
2017-06-03T03:12:14.431Z,17.00
2017-06-03T03:14:41.917Z,17.00
2017-06-03T03:17:09.850Z,17.00
2017-06-03T03:19:37.341Z,17.00
2017-06-03T03:22:05.233Z,17.00
2017-06-03T03:24:32.776Z,16.90
2017-06-03T03:27:00.617Z,17.00
2017-06-03T03:29:28.103Z,17.00
2017-06-03T03:31:56.320Z,16.90
2017-06-03T03:34:23.804Z,16.90
2017-06-03T03:36:51.550Z,16.70
2017-06-03T03:39:19.106Z,16.80
2017-06-03T03:41:46.600Z,17.00
2017-06-03T03:44:14.487Z,17.00
2017-06-03T03:46:42.149Z,17.00
2017-06-03T03:49:09.632Z,16.90
2017-06-03T03:51:37.137Z,17.00
2017-06-03T03:54:04.668Z,17.00
2017-06-03T03:56:32.171Z,17.10
2017-06-03T03:59:00.068Z,17.10
2017-06-03T04:01:28.572Z,17.10
2017-06-03T04:03:56.074Z,17.20
2017-06-03T04:06:23.576Z,17.20
2017-06-03T04:08:51.131Z,17.10
2017-06-03T04:11:18.622Z,17.00
2017-06-03T04:13:46.110Z,17.00
2017-06-03T04:16:14.060Z,17.10
2017-06-03T04:18:41.559Z,17.10
2017-06-03T04:21:09.056Z,17.00
2017-06-03T04:23:36.640Z,16.90
2017-06-03T04:26:04.154Z,17.00
2017-06-03T04:28:31.656Z,17.00
2017-06-03T04:30:59.187Z,16.90
2017-06-03T04:33:26.688Z,16.80
2017-06-03T04:35:54.573Z,16.90
2017-06-03T04:38:22.111Z,16.90
2017-06-03T04:40:49.597Z,16.80
2017-06-03T04:43:17.083Z,16.90
2017-06-03T04:45:44.587Z,17.00
2017-06-03T04:48:13.236Z,17.10
2017-06-03T04:50:40.728Z,17.10
2017-06-03T04:53:08.767Z,17.00
2017-06-03T04:55:36.261Z,17.00
2017-06-03T04:58:04.483Z,17.20
2017-06-03T05:00:31.989Z,17.20
2017-06-03T05:02:59.703Z,17.40
2017-06-03T05:05:27.187Z,17.30
2017-06-03T05:07:54.704Z,17.20
2017-06-03T05:10:22.198Z,17.30
2017-06-03T05:12:49.687Z,17.30
2017-06-03T05:15:17.604Z,17.50
2017-06-03T05:17:45.092Z,17.50
2017-06-03T05:20:12.594Z,17.50
2017-06-03T05:22:40.163Z,17.80
2017-06-03T05:25:07.650Z,18.00
2017-06-03T05:27:35.366Z,17.90
2017-06-03T05:30:02.905Z,17.90
2017-06-03T05:32:30.872Z,18.00
2017-06-03T05:34:58.380Z,18.00
2017-06-03T05:37:25.919Z,18.10
2017-06-03T05:39:53.424Z,17.90
2017-06-03T05:42:20.937Z,18.00
2017-06-03T05:44:48.460Z,18.20
2017-06-03T05:47:16.353Z,18.20
2017-06-03T05:49:43.841Z,18.30
2017-06-03T05:52:11.367Z,18.30
2017-06-03T05:54:38.876Z,18.40
2017-06-03T05:57:06.383Z,18.70
2017-06-03T05:59:33.956Z,18.50
2017-06-03T06:02:01.446Z,18.40
2017-06-03T06:04:28.980Z,18.40
2017-06-03T06:06:56.523Z,18.60
2017-06-03T06:09:24.051Z,18.50
2017-06-03T06:11:51.977Z,18.40
2017-06-03T06:14:19.510Z,18.40
2017-06-03T06:16:47.028Z,18.50
2017-06-03T06:19:14.542Z,18.50
2017-06-03T06:21:42.083Z,18.70
2017-06-03T06:24:09.596Z,19.00
2017-06-03T06:26:37.581Z,19.30
2017-06-03T06:29:05.143Z,19.40
2017-06-03T06:31:32.659Z,19.50
2017-06-03T06:34:00.190Z,19.70
2017-06-03T06:39:01.953Z,20.30
2017-06-03T06:41:29.496Z,20.30
2017-06-03T06:43:56.989Z,20.40
2017-06-03T06:46:24.561Z,20.20
2017-06-03T06:48:52.125Z,20.10
2017-06-03T06:51:20.361Z,20.00
2017-06-03T06:53:47.878Z,19.80
2017-06-03T06:56:15.628Z,19.80
2017-06-03T06:58:43.212Z,19.70
2017-06-03T07:01:10.768Z,19.70
2017-06-03T07:03:38.419Z,20.10
2017-06-03T07:06:05.961Z,20.20
2017-06-03T07:11:06.720Z,20.30
2017-06-03T07:13:34.566Z,20.70
2017-06-03T07:16:04.366Z,20.90
2017-06-03T07:18:31.906Z,21.30
2017-06-03T07:20:59.820Z,21.80
2017-06-03T07:23:27.330Z,21.80
2017-06-03T07:25:54.904Z,21.30
2017-06-03T07:28:22.589Z,21.60
2017-06-03T07:30:50.091Z,21.50
2017-06-03T07:33:17.690Z,21.20
2017-06-03T07:35:45.222Z,21.10
2017-06-03T07:38:12.730Z,21.70
2017-06-03T07:40:40.302Z,21.70
2017-06-03T07:43:07.804Z,21.90
2017-06-03T07:45:35.591Z,21.60
2017-06-03T07:48:03.127Z,21.50
2017-06-03T07:50:31.013Z,22.00
2017-06-03T07:52:58.542Z,22.00
2017-06-03T07:55:26.587Z,22.90
2017-06-03T07:57:54.092Z,22.90
2017-06-03T08:00:22.019Z,23.60
2017-06-03T08:02:49.599Z,23.80
2017-06-03T08:05:17.092Z,23.70
2017-06-03T08:07:45.671Z,23.50
2017-06-03T08:10:13.258Z,23.10
2017-06-03T08:12:40.828Z,23.00
2017-06-03T08:15:08.330Z,22.90
2017-06-03T08:17:36.295Z,23.90
2017-06-03T08:20:04.579Z,24.00
2017-06-03T08:22:32.556Z,24.00
2017-06-03T08:25:00.194Z,23.50
2017-06-03T08:27:28.587Z,23.30
2017-06-03T08:29:56.162Z,23.30
2017-06-03T08:32:24.066Z,23.40
2017-06-03T08:34:51.572Z,23.80
2017-06-03T08:37:19.067Z,23.80
2017-06-03T08:39:46.837Z,23.20
2017-06-03T08:42:14.341Z,23.10
2017-06-03T08:44:42.026Z,23.20
2017-06-03T08:47:09.564Z,23.20
2017-06-03T08:49:37.169Z,23.80
2017-06-03T08:52:04.684Z,24.00
2017-06-03T08:54:32.239Z,24.00
2017-06-03T08:56:59.759Z,23.70
2017-06-03T08:59:27.262Z,23.90
2017-06-03T09:01:56.286Z,23.80
2017-06-03T09:04:23.787Z,23.80
2017-06-03T09:06:51.328Z,24.00
2017-06-03T09:09:18.862Z,24.70
2017-06-03T09:11:54.626Z,24.60
2017-06-03T09:14:22.242Z,24.60
2017-06-03T09:16:49.814Z,24.60
2017-06-03T09:19:17.393Z,24.60
2017-06-03T09:21:45.177Z,24.30
2017-06-03T09:24:12.790Z,24.30
2017-06-03T09:26:40.767Z,24.10
2017-06-03T09:29:08.324Z,24.10
2017-06-03T09:31:35.841Z,23.90
2017-06-03T09:34:03.364Z,23.70
2017-06-03T09:36:30.921Z,23.70
2017-06-03T09:38:58.409Z,24.20
2017-06-03T09:41:25.895Z,24.10
2017-06-03T09:43:53.437Z,23.70
2017-06-03T09:46:21.169Z,23.50
2017-06-03T09:48:48.674Z,23.30
2017-06-03T09:51:16.729Z,23.20
2017-06-03T09:53:44.232Z,23.20
2017-06-03T09:56:11.727Z,23.10
2017-06-03T09:58:39.255Z,23.20
2017-06-03T10:01:06.746Z,23.30
2017-06-03T10:03:34.252Z,23.10
2017-06-03T10:06:01.790Z,22.90
2017-06-03T10:08:29.325Z,23.20
2017-06-03T10:10:56.845Z,23.20
2017-06-03T10:13:24.421Z,23.20
2017-06-03T10:16:00.396Z,23.30
2017-06-03T10:18:27.971Z,23.90
2017-06-03T10:20:55.474Z,24.30
2017-06-03T10:24:55.239Z,24.20
2017-06-03T10:27:22.857Z,24.30
2017-06-03T10:29:50.360Z,24.50
2017-06-03T10:32:17.925Z,24.30
2017-06-03T10:34:45.423Z,24.20
2017-06-03T10:37:12.935Z,24.20
2017-06-03T10:39:40.473Z,24.30
2017-06-03T10:42:07.975Z,24.10
2017-06-03T10:44:35.880Z,23.90
2017-06-03T10:47:04.205Z,23.90
2017-06-03T10:49:31.699Z,24.00
2017-06-03T10:51:59.187Z,23.00
2017-06-03T10:54:26.725Z,21.80
2017-06-03T10:56:54.224Z,21.50
2017-06-03T10:59:22.157Z,21.30
2017-06-03T11:01:49.744Z,20.90
2017-06-03T11:04:17.257Z,20.90
2017-06-03T11:06:44.766Z,20.80
2017-06-03T11:09:12.448Z,20.80
2017-06-03T11:11:39.954Z,20.70
2017-06-03T11:14:07.704Z,20.50
2017-06-03T11:16:35.257Z,20.40
2017-06-03T11:19:02.753Z,20.20
2017-06-03T11:21:30.525Z,20.10
2017-06-03T11:23:58.089Z,20.20
2017-06-03T11:26:27.174Z,20.30
2017-06-03T11:28:54.679Z,20.20
2017-06-03T11:31:22.636Z,20.30
2017-06-03T11:33:50.737Z,20.30
2017-06-03T11:36:18.538Z,20.30
2017-06-03T11:38:46.112Z,20.20
2017-06-03T11:41:13.613Z,20.20
2017-06-03T11:43:41.420Z,20.10
2017-06-03T11:46:09.016Z,20.00
2017-06-03T11:48:36.517Z,20.10
2017-06-03T11:51:04.017Z,20.40
2017-06-03T11:53:31.581Z,20.40
2017-06-03T11:55:59.437Z,20.50
2017-06-03T11:58:27.022Z,20.50
2017-06-03T12:00:55.025Z,20.80
2017-06-03T12:03:23.138Z,20.80
2017-06-03T12:05:50.626Z,20.80
2017-06-03T12:08:18.568Z,20.50
2017-06-03T12:10:46.074Z,20.60
2017-06-03T12:13:13.558Z,20.60
2017-06-03T12:15:41.139Z,20.60
2017-06-03T12:18:08.643Z,20.80
2017-06-03T12:20:36.199Z,20.90
2017-06-03T12:23:03.756Z,21.00
2017-06-03T12:25:31.664Z,21.10
2017-06-03T12:27:59.175Z,21.00
2017-06-03T12:30:27.182Z,20.60
2017-06-03T12:32:54.680Z,20.60
2017-06-03T12:35:22.471Z,20.60
2017-06-03T12:37:50.126Z,20.50
2017-06-03T12:40:18.031Z,20.40
2017-06-03T12:42:45.529Z,20.40
2017-06-03T12:45:13.110Z,20.40
2017-06-03T12:47:41.013Z,20.30
2017-06-03T12:50:08.524Z,20.30
2017-06-03T12:52:36.476Z,20.40
2017-06-03T12:55:03.985Z,20.40
2017-06-03T12:57:31.479Z,20.50
2017-06-03T12:59:58.996Z,20.50
2017-06-03T13:02:26.484Z,20.40
2017-06-03T13:04:53.988Z,20.40
2017-06-03T13:07:21.931Z,20.70
2017-06-03T13:09:49.424Z,20.70
2017-06-03T13:12:17.320Z,21.10
2017-06-03T13:14:44.884Z,21.10
2017-06-03T13:17:12.394Z,21.30
2017-06-03T13:19:40.340Z,21.70
2017-06-03T13:22:08.023Z,21.70
2017-06-03T13:24:35.521Z,21.60
2017-06-03T13:27:03.103Z,21.50
2017-06-03T13:29:30.644Z,21.50
2017-06-03T13:31:58.153Z,21.70
2017-06-03T13:34:25.680Z,21.70
2017-06-03T13:36:53.260Z,21.70
2017-06-03T13:39:20.770Z,21.60
2017-06-03T13:41:48.317Z,21.50
2017-06-03T13:44:15.864Z,21.40
2017-06-03T13:46:44.101Z,21.30
2017-06-03T13:49:11.613Z,21.30
2017-06-03T13:51:39.268Z,21.20
2017-06-03T13:54:06.768Z,21.20
2017-06-03T13:56:34.297Z,21.20
2017-06-03T13:59:01.913Z,21.20
2017-06-03T14:01:29.422Z,21.20
2017-06-03T14:03:56.927Z,21.20
2017-06-03T14:06:24.465Z,21.30
2017-06-03T14:08:51.997Z,21.40
2017-06-03T14:11:19.787Z,21.60
2017-06-03T14:13:47.348Z,21.60
2017-06-03T14:16:14.900Z,21.60
2017-06-03T14:18:42.658Z,21.70
2017-06-03T14:21:10.204Z,21.70
2017-06-03T14:23:37.710Z,21.80
2017-06-03T14:26:05.509Z,21.90
2017-06-03T14:28:33.687Z,22.10
2017-06-03T14:31:01.175Z,22.30
2017-06-03T14:33:28.664Z,22.60
2017-06-03T14:35:56.395Z,22.80
2017-06-03T14:38:24.459Z,23.30
2017-06-03T14:40:51.982Z,23.30
2017-06-03T14:43:19.924Z,24.00
2017-06-03T14:45:47.495Z,24.00
2017-06-03T14:48:15.398Z,24.40
2017-06-03T14:50:42.915Z,24.40
2017-06-03T14:53:10.448Z,24.50
2017-06-03T14:55:37.947Z,24.50
2017-06-03T14:58:06.252Z,24.50
2017-06-03T15:00:33.752Z,24.50
2017-06-03T15:03:01.266Z,24.60
2017-06-03T15:05:28.947Z,24.60
2017-06-03T15:07:56.463Z,24.30
2017-06-03T15:10:24.370Z,24.50
2017-06-03T15:12:51.928Z,24.50
2017-06-03T15:15:19.547Z,24.40
2017-06-03T15:17:47.112Z,24.70
2017-06-03T15:20:15.051Z,24.60
2017-06-03T15:22:43.704Z,24.60
2017-06-03T15:25:12.167Z,24.70
2017-06-03T15:27:40.543Z,25.20
2017-06-03T15:30:08.116Z,25.50
2017-06-03T15:32:35.637Z,25.80
2017-06-03T15:35:03.582Z,25.70
2017-06-03T15:37:31.129Z,25.70
2017-06-03T15:39:59.139Z,25.50
2017-06-03T15:42:26.665Z,25.80
2017-06-03T15:44:54.234Z,26.20
2017-06-03T15:47:21.748Z,26.20
2017-06-03T15:49:49.293Z,25.90
2017-06-03T15:52:16.892Z,25.80
2017-06-03T15:54:44.417Z,25.90
2017-06-03T15:57:12.217Z,26.10
2017-06-03T15:59:39.891Z,26.00
2017-06-03T16:02:07.451Z,25.10
2017-06-03T16:04:35.289Z,24.40
2017-06-03T16:07:02.799Z,24.40
2017-06-03T16:09:30.679Z,25.00
2017-06-03T16:11:58.220Z,25.00
2017-06-03T16:14:26.120Z,23.80
2017-06-03T16:16:53.623Z,23.80
2017-06-03T16:19:21.161Z,23.80
2017-06-03T16:21:48.665Z,23.90
2017-06-03T16:24:16.559Z,23.30
2017-06-03T16:26:44.510Z,23.40
2017-06-03T16:29:12.099Z,23.30
2017-06-03T16:31:40.490Z,23.70
2017-06-03T16:34:08.092Z,24.00
2017-06-03T16:36:35.973Z,24.40
2017-06-03T16:39:04.188Z,23.70
2017-06-03T16:41:31.711Z,23.70
2017-06-03T16:43:59.206Z,23.50
2017-06-03T16:46:26.757Z,23.40
2017-06-03T16:48:54.370Z,23.00
2017-06-03T16:51:21.872Z,23.00
2017-06-03T16:53:49.356Z,23.40
2017-06-03T16:56:16.904Z,23.60
2017-06-03T16:58:44.402Z,23.80
2017-06-03T17:01:12.007Z,23.70
2017-06-03T17:03:39.562Z,23.80
2017-06-03T17:06:07.050Z,23.90
2017-06-03T17:08:34.647Z,24.00
2017-06-03T17:11:02.655Z,24.10
2017-06-03T17:13:30.143Z,24.10
2017-06-03T17:15:57.645Z,24.20
2017-06-03T17:18:25.201Z,23.70
2017-06-03T17:20:52.697Z,23.20
2017-06-03T17:23:20.191Z,23.20
2017-06-03T17:25:48.675Z,23.20
2017-06-03T17:28:16.586Z,22.80
2017-06-03T17:30:44.137Z,22.80
2017-06-03T17:33:11.784Z,22.60
2017-06-03T17:35:39.281Z,22.60
2017-06-03T17:38:06.834Z,22.60
2017-06-03T17:40:34.341Z,22.70
2017-06-03T17:43:02.576Z,22.90
2017-06-03T17:45:30.087Z,22.90
2017-06-03T17:48:00.012Z,23.10
2017-06-03T17:50:27.560Z,23.20
2017-06-03T17:52:55.149Z,23.40
2017-06-03T17:55:22.701Z,23.60
2017-06-03T17:57:50.216Z,23.50
2017-06-03T18:00:17.924Z,23.60
2017-06-03T18:02:45.593Z,23.70
2017-06-03T18:05:13.349Z,23.50
2017-06-03T18:07:41.520Z,23.60
2017-06-03T18:10:09.536Z,24.10
2017-06-03T18:12:37.168Z,24.10
2017-06-03T18:15:04.680Z,23.90
2017-06-03T18:17:32.612Z,23.80
2017-06-03T18:20:00.370Z,23.90
2017-06-03T18:22:28.626Z,23.50
2017-06-03T18:24:56.164Z,23.20
2017-06-03T18:27:39.399Z,22.80
2017-06-03T18:30:06.944Z,22.60
2017-06-03T18:32:34.443Z,22.50
2017-06-03T18:35:01.944Z,22.50
2017-06-03T18:37:29.584Z,22.50
2017-06-03T18:39:57.081Z,22.60
2017-06-03T18:42:24.579Z,22.60
2017-06-03T18:44:52.546Z,22.70
2017-06-03T18:47:20.100Z,22.90
2017-06-03T18:49:47.909Z,23.00
2017-06-03T18:52:15.427Z,22.70
2017-06-03T18:54:42.916Z,22.60
2017-06-03T18:57:10.420Z,22.50
2017-06-03T18:59:37.941Z,22.60
2017-06-03T19:02:05.444Z,22.70
2017-06-03T19:04:32.949Z,22.30
2017-06-03T19:07:00.507Z,22.10
2017-06-03T19:09:28.052Z,21.90
2017-06-03T19:11:55.611Z,21.80
2017-06-03T19:14:23.131Z,21.60
2017-06-03T19:16:50.625Z,21.60
2017-06-03T19:19:18.125Z,21.50
2017-06-03T19:21:46.060Z,21.30
2017-06-03T19:24:13.548Z,21.30
2017-06-03T19:26:50.317Z,21.60
2017-06-03T19:29:23.196Z,21.60
2017-06-03T19:31:50.869Z,21.90
2017-06-03T19:34:18.370Z,22.00
2017-06-03T19:36:45.864Z,22.00
2017-06-03T19:39:13.406Z,22.20
2017-06-03T19:41:40.945Z,22.30
2017-06-03T19:44:08.438Z,21.80
2017-06-03T19:46:36.520Z,21.60
2017-06-03T19:49:04.072Z,21.60
2017-06-03T19:51:31.597Z,21.60
2017-06-03T19:54:02.968Z,21.40
2017-06-03T19:56:30.482Z,21.20
2017-06-03T19:58:58.037Z,21.10
2017-06-03T20:01:25.537Z,21.10
2017-06-03T20:03:53.028Z,21.00
2017-06-03T20:06:20.628Z,20.90
2017-06-03T20:08:48.123Z,21.10
2017-06-03T20:11:15.643Z,21.30
2017-06-03T20:13:43.199Z,21.10
2017-06-03T20:16:10.705Z,21.10
2017-06-03T20:18:38.436Z,21.00
2017-06-03T20:21:05.981Z,21.00
2017-06-03T20:23:33.476Z,20.90
2017-06-03T20:26:01.356Z,20.90
2017-06-03T20:28:29.668Z,20.90
2017-06-03T20:30:57.167Z,20.80
2017-06-03T20:33:24.702Z,20.80
2017-06-03T20:35:52.247Z,20.70
2017-06-03T20:38:19.819Z,20.60
2017-06-03T20:40:47.326Z,20.60
2017-06-03T20:43:14.940Z,20.50
2017-06-03T20:45:42.444Z,20.40
2017-06-03T20:48:09.939Z,20.40
2017-06-03T20:50:37.616Z,20.40
2017-06-03T20:53:05.117Z,20.30
2017-06-03T20:55:32.636Z,20.50
2017-06-03T20:58:00.256Z,20.50
2017-06-03T21:00:28.263Z,20.90
2017-06-03T21:02:55.769Z,20.90
2017-06-03T21:05:23.299Z,21.10
2017-06-03T21:07:50.793Z,21.20
2017-06-03T21:10:18.682Z,21.50
2017-06-03T21:12:46.204Z,21.60
2017-06-03T21:15:14.153Z,21.80
2017-06-03T21:17:41.667Z,21.80
2017-06-03T21:20:09.301Z,21.90
2017-06-03T21:22:36.808Z,21.90
2017-06-03T21:25:04.305Z,22.10
2017-06-03T21:27:31.849Z,22.20
2017-06-03T21:29:59.344Z,22.30
2017-06-03T21:32:27.239Z,22.20
2017-06-03T21:34:54.848Z,22.20
2017-06-03T21:37:22.756Z,22.30
2017-06-03T21:39:50.252Z,22.30
2017-06-03T21:42:17.795Z,22.30
2017-06-03T21:44:45.297Z,22.50
2017-06-03T21:47:12.791Z,22.70
2017-06-03T21:49:40.332Z,22.90
2017-06-03T21:52:08.245Z,22.60
2017-06-03T21:54:36.735Z,22.60
2017-06-03T21:57:05.117Z,22.60
2017-06-03T21:59:32.647Z,22.60
2017-06-03T22:02:00.132Z,22.70
2017-06-03T22:04:28.207Z,22.90
2017-06-03T22:06:55.700Z,22.90
2017-06-03T22:09:23.602Z,23.00
2017-06-03T22:11:51.161Z,23.00
2017-06-03T22:14:18.665Z,22.90
2017-06-03T22:16:46.160Z,22.90
2017-06-03T22:19:13.694Z,22.80
2017-06-03T22:21:41.197Z,22.90
2017-06-03T22:24:08.693Z,22.70
2017-06-03T22:26:36.246Z,22.60
2017-06-03T22:29:03.743Z,22.80
2017-06-03T22:31:31.236Z,22.90
2017-06-03T22:33:58.783Z,22.70
2017-06-03T22:36:26.284Z,22.70
2017-06-03T22:38:53.775Z,22.60
2017-06-03T22:41:21.700Z,22.40
2017-06-03T22:43:49.807Z,22.40
2017-06-03T22:46:17.712Z,22.00
2017-06-03T22:48:45.300Z,22.00
2017-06-03T22:51:12.790Z,22.10
2017-06-03T22:53:40.692Z,22.30
2017-06-03T22:56:08.282Z,22.30
2017-06-03T22:58:35.912Z,22.20
2017-06-03T23:01:03.435Z,22.20
2017-06-03T23:03:31.390Z,21.80
2017-06-03T23:05:58.898Z,21.80
2017-06-03T23:08:26.400Z,21.70
2017-06-03T23:10:53.958Z,21.70
2017-06-03T23:13:21.451Z,21.70
2017-06-03T23:15:48.948Z,21.70
2017-06-03T23:18:16.533Z,21.70
2017-06-03T23:20:44.027Z,21.50
2017-06-03T23:23:11.524Z,21.50
2017-06-03T23:25:39.288Z,21.60
2017-06-03T23:28:07.052Z,21.60
2017-06-03T23:30:34.550Z,21.50
2017-06-03T23:33:02.263Z,21.30
2017-06-03T23:35:29.785Z,21.10
2017-06-03T23:37:57.676Z,21.00
2017-06-03T23:40:25.216Z,21.00
2017-06-03T23:42:52.727Z,21.20
2017-06-03T23:45:20.244Z,21.30
2017-06-03T23:47:47.820Z,21.30
2017-06-03T23:50:15.313Z,21.20
2017-06-03T23:52:42.820Z,21.20
2017-06-03T23:55:10.353Z,21.10
2017-06-03T23:57:38.241Z,21.10
